createdAt,value
2023-05-19T00:02:12.530Z,20.70
2023-05-19T00:04:37.814Z,20.95
2023-05-19T00:07:05.712Z,21.58
2023-05-19T00:09:31.519Z,24.50
2023-05-19T00:11:56.871Z,20.05
2023-05-19T00:14:21.941Z,26.65
2023-05-19T00:16:47.682Z,18.30
2023-05-19T00:19:12.486Z,18.83
2023-05-19T00:21:39.054Z,18.98
2023-05-19T00:24:06.711Z,17.42
2023-05-19T00:26:31.655Z,20.50
2023-05-19T00:29:03.763Z,21.40
2023-05-19T00:31:28.627Z,16.80
2023-05-19T00:33:53.495Z,18.20
2023-05-19T00:36:18.356Z,18.42
2023-05-19T00:38:43.050Z,16.60
2023-05-19T00:41:09.711Z,15.82
2023-05-19T00:43:34.881Z,16.23
2023-05-19T00:45:59.590Z,17.42
2023-05-19T00:48:24.618Z,17.70
2023-05-19T00:50:50.328Z,17.33
2023-05-19T00:53:17.049Z,15.25
2023-05-19T00:55:42.053Z,16.50
2023-05-19T00:58:09.230Z,18.92
2023-05-19T01:00:34.706Z,20.77
2023-05-19T01:03:00.374Z,21.30
2023-05-19T01:05:25.225Z,17.95
2023-05-19T01:07:53.614Z,18.77
2023-05-19T01:10:18.256Z,16.73
2023-05-19T01:12:44.698Z,18.00
2023-05-19T01:15:12.413Z,20.05
2023-05-19T01:17:45.944Z,19.38
2023-05-19T01:20:18.716Z,19.92
2023-05-19T01:23:15.323Z,17.92
2023-05-19T01:26:04.227Z,16.98
2023-05-19T01:28:47.205Z,22.65
2023-05-19T01:31:14.023Z,16.15
2023-05-19T01:33:41.284Z,18.35
2023-05-19T01:36:08.829Z,17.95
2023-05-19T01:38:35.764Z,19.10
2023-05-19T01:41:02.083Z,17.92
2023-05-19T01:43:29.239Z,17.92
2023-05-19T01:45:54.807Z,16.92
2023-05-19T01:48:21.918Z,19.90
2023-05-19T01:50:47.098Z,21.85
2023-05-19T01:53:12.768Z,21.10
2023-05-19T01:55:42.823Z,19.08
2023-05-19T01:58:15.595Z,18.27
2023-05-19T02:00:54.596Z,21.27
2023-05-19T02:03:48.175Z,17.57
2023-05-19T02:06:32.361Z,18.92
2023-05-19T02:09:03.810Z,21.98
2023-05-19T02:11:37.497Z,19.13
2023-05-19T02:14:07.108Z,20.40
2023-05-19T02:16:32.213Z,22.83
2023-05-19T02:18:59.819Z,23.00
2023-05-19T02:21:25.130Z,20.02
2023-05-19T02:23:50.511Z,21.92
2023-05-19T02:26:17.891Z,21.48
2023-05-19T02:28:42.606Z,24.63
2023-05-19T02:31:09.091Z,19.25
2023-05-19T02:33:34.180Z,22.10
2023-05-19T02:36:01.945Z,19.75
2023-05-19T02:38:26.928Z,20.73
2023-05-19T02:40:54.217Z,17.80
2023-05-19T02:43:18.961Z,20.88
2023-05-19T02:45:44.053Z,18.55
2023-05-19T02:48:08.965Z,22.35
2023-05-19T02:50:33.837Z,22.15
2023-05-19T02:53:00.011Z,24.58
2023-05-19T02:55:24.769Z,20.02
2023-05-19T02:57:49.551Z,20.45
2023-05-19T03:00:15.356Z,23.48
2023-05-19T03:02:41.574Z,19.48
2023-05-19T03:05:08.163Z,23.27
2023-05-19T03:07:33.920Z,19.75
2023-05-19T03:10:00.215Z,22.85
2023-05-19T03:12:24.984Z,19.95
2023-05-19T03:14:49.684Z,21.88
2023-05-19T03:17:14.516Z,19.08
2023-05-19T03:19:39.421Z,17.95
2023-05-19T03:22:04.504Z,19.50
2023-05-19T03:24:30.448Z,20.48
2023-05-19T03:26:57.078Z,18.30
2023-05-19T03:29:22.333Z,19.48
2023-05-19T03:31:48.344Z,23.65
2023-05-19T03:34:14.793Z,19.70
2023-05-19T03:36:40.214Z,25.02
2023-05-19T03:39:11.289Z,28.80
2023-05-19T03:41:36.266Z,18.65
2023-05-19T03:44:02.858Z,21.02
2023-05-19T03:46:27.783Z,21.70
2023-05-19T03:49:04.958Z,18.52
2023-05-19T03:51:59.362Z,20.42
2023-05-19T03:54:34.039Z,22.60
2023-05-19T03:57:01.313Z,16.05
2023-05-19T03:59:27.970Z,19.02
2023-05-19T04:01:52.945Z,18.15
2023-05-19T04:04:17.888Z,21.50
2023-05-19T04:06:43.909Z,22.45
2023-05-19T04:09:14.667Z,19.30
2023-05-19T04:11:39.837Z,19.25
2023-05-19T04:14:06.280Z,20.17
2023-05-19T04:16:33.329Z,22.33
2023-05-19T04:18:58.113Z,21.38
2023-05-19T04:21:23.417Z,30.85
2023-05-19T04:23:48.181Z,19.75
2023-05-19T04:26:14.992Z,17.23
2023-05-19T04:28:42.717Z,21.73
2023-05-19T04:31:11.320Z,21.50
2023-05-19T04:33:38.776Z,19.50
2023-05-19T04:36:05.837Z,25.98
2023-05-19T04:38:31.226Z,25.80
2023-05-19T04:41:01.792Z,32.28
2023-05-19T04:43:29.365Z,24.98
2023-05-19T04:45:54.396Z,23.52
2023-05-19T04:48:21.820Z,19.08
2023-05-19T04:50:52.290Z,23.90
2023-05-19T04:53:17.239Z,24.80
2023-05-19T04:55:42.504Z,25.42
2023-05-19T04:58:07.727Z,20.83
2023-05-19T05:00:32.548Z,24.65
2023-05-19T05:03:00.778Z,27.65
2023-05-19T05:05:27.957Z,22.30
2023-05-19T05:07:55.023Z,22.90
2023-05-19T05:10:21.847Z,27.88
2023-05-19T05:12:47.272Z,18.73
2023-05-19T05:15:13.123Z,26.25
2023-05-19T05:17:38.542Z,23.38
2023-05-19T05:20:05.011Z,28.38
2023-05-19T05:22:30.860Z,20.98
2023-05-19T05:24:57.846Z,24.40
2023-05-19T05:27:22.451Z,30.30
2023-05-19T05:29:47.529Z,23.00
2023-05-19T05:32:12.582Z,21.38
2023-05-19T05:34:40.351Z,21.83
2023-05-19T05:37:05.180Z,20.33
2023-05-19T05:39:31.962Z,24.92
2023-05-19T05:41:59.251Z,20.15
2023-05-19T05:44:24.195Z,25.05
2023-05-19T05:46:51.450Z,29.02
2023-05-19T05:49:17.005Z,25.02
2023-05-19T05:51:54.245Z,20.33
2023-05-19T05:54:30.258Z,22.40
2023-05-19T05:56:55.693Z,24.58
2023-05-19T05:59:22.474Z,21.27
2023-05-19T06:01:47.370Z,21.90
2023-05-19T06:04:15.813Z,22.33
2023-05-19T06:06:40.566Z,20.35
2023-05-19T06:09:06.796Z,23.92
2023-05-19T06:11:31.776Z,23.67
2023-05-19T06:13:57.812Z,22.13
2023-05-19T06:16:43.042Z,21.73
2023-05-19T06:19:08.596Z,26.65
2023-05-19T06:21:33.672Z,25.40
2023-05-19T06:23:58.390Z,24.95
2023-05-19T06:26:24.564Z,23.58
2023-05-19T06:28:49.486Z,18.42
2023-05-19T06:31:16.897Z,20.55
2023-05-19T06:34:05.963Z,21.65
2023-05-19T06:36:30.535Z,21.88
2023-05-19T06:38:56.841Z,21.17
2023-05-19T06:41:22.100Z,22.50
2023-05-19T06:43:49.617Z,24.40
2023-05-19T06:46:14.265Z,19.90
2023-05-19T06:48:41.421Z,22.55
2023-05-19T06:51:10.284Z,20.40
2023-05-19T06:53:37.092Z,23.42
2023-05-19T06:56:06.456Z,19.05
2023-05-19T06:58:33.417Z,20.17
2023-05-19T07:01:01.040Z,28.88
2023-05-19T07:03:31.737Z,18.20
2023-05-19T07:05:57.377Z,19.88
2023-05-19T07:08:23.446Z,19.10
2023-05-19T07:10:48.208Z,19.45
2023-05-19T07:13:14.504Z,23.08
2023-05-19T07:15:39.258Z,19.80
2023-05-19T07:18:03.955Z,25.88
2023-05-19T07:20:28.757Z,25.05
2023-05-19T07:22:54.959Z,20.10
2023-05-19T07:25:21.015Z,19.40
2023-05-19T07:27:46.119Z,25.88
2023-05-19T07:30:11.704Z,20.48
2023-05-19T07:32:36.502Z,24.58
2023-05-19T07:35:01.199Z,19.55
2023-05-19T07:37:29.906Z,19.30
2023-05-19T07:39:57.140Z,24.17
2023-05-19T07:42:23.360Z,20.58
2023-05-19T07:44:47.962Z,23.63
2023-05-19T07:47:12.534Z,33.13
2023-05-19T07:49:37.306Z,23.83
2023-05-19T07:52:02.019Z,19.75
2023-05-19T07:54:26.831Z,21.65
2023-05-19T07:56:51.820Z,18.48
2023-05-19T07:59:18.277Z,20.70
2023-05-19T08:01:42.797Z,22.45
2023-05-19T08:04:09.063Z,19.77
2023-05-19T08:06:35.576Z,24.40
2023-05-19T08:09:00.505Z,16.60
2023-05-19T08:11:25.997Z,20.70
2023-05-19T08:13:51.096Z,22.40
2023-05-19T08:16:17.200Z,19.75
2023-05-19T08:18:42.152Z,22.55
2023-05-19T08:21:07.627Z,19.58
2023-05-19T08:23:32.327Z,24.17
2023-05-19T08:25:57.084Z,17.33
2023-05-19T08:28:22.148Z,23.48
2023-05-19T08:30:46.942Z,22.23
2023-05-19T08:33:13.693Z,25.08
2023-05-19T08:35:38.675Z,21.65
2023-05-19T08:38:03.783Z,21.98
2023-05-19T08:40:32.167Z,19.80
2023-05-19T08:42:57.083Z,22.00
2023-05-19T08:45:22.237Z,22.58
2023-05-19T08:47:48.709Z,30.00
2023-05-19T08:50:18.855Z,20.35
2023-05-19T08:52:53.409Z,21.48
2023-05-19T08:55:31.313Z,21.90
2023-05-19T08:57:57.522Z,20.65
2023-05-19T09:00:22.756Z,18.63
2023-05-19T09:02:59.880Z,18.00
2023-05-19T09:05:33.442Z,20.10
2023-05-19T09:07:58.395Z,22.15
2023-05-19T09:10:23.047Z,20.05
2023-05-19T09:12:50.090Z,21.98
2023-05-19T09:15:16.437Z,17.63
2023-05-19T09:17:41.395Z,18.40
2023-05-19T09:20:11.064Z,21.05
2023-05-19T09:25:07.623Z,18.23
2023-05-19T09:27:33.961Z,19.67
2023-05-19T09:30:08.780Z,18.02
2023-05-19T09:32:37.502Z,24.77
2023-05-19T09:35:04.860Z,17.48
2023-05-19T09:37:30.189Z,21.27
2023-05-19T09:39:56.677Z,19.35
2023-05-19T09:42:27.956Z,25.05
2023-05-19T09:44:52.626Z,17.70
2023-05-19T09:47:18.058Z,16.25
2023-05-19T09:49:48.539Z,21.23
2023-05-19T09:52:17.324Z,21.00
2023-05-19T09:54:42.230Z,19.48
2023-05-19T09:57:09.009Z,17.52
2023-05-19T09:59:34.315Z,18.73
2023-05-19T10:02:00.405Z,17.60
2023-05-19T10:04:27.015Z,20.45
2023-05-19T10:06:54.589Z,17.73
2023-05-19T10:09:19.746Z,20.63
2023-05-19T10:11:45.234Z,18.75
2023-05-19T10:14:11.853Z,20.48
2023-05-19T10:16:37.875Z,17.40
2023-05-19T10:19:04.118Z,26.58
2023-05-19T10:21:29.874Z,17.45
2023-05-19T10:23:54.743Z,19.48
2023-05-19T10:26:20.127Z,16.35
2023-05-19T10:28:47.002Z,18.33
2023-05-19T10:31:20.802Z,16.25
2023-05-19T10:34:02.306Z,20.23
2023-05-19T10:36:46.057Z,19.73
2023-05-19T10:39:18.439Z,19.20
2023-05-19T10:41:48.499Z,17.88
2023-05-19T10:44:21.426Z,17.08
2023-05-19T10:46:47.730Z,18.60
2023-05-19T10:49:21.343Z,21.02
2023-05-19T10:51:47.091Z,16.00
2023-05-19T10:54:14.417Z,15.65
2023-05-19T10:56:42.658Z,17.70
2023-05-19T10:59:07.333Z,18.67
2023-05-19T11:01:34.172Z,18.08
2023-05-19T11:04:06.934Z,17.88
2023-05-19T11:06:32.859Z,14.65
2023-05-19T11:09:00.861Z,13.98
2023-05-19T11:11:26.475Z,19.23
2023-05-19T11:13:53.827Z,17.67
2023-05-19T11:16:22.267Z,14.18
2023-05-19T11:18:50.775Z,17.27
2023-05-19T11:21:17.076Z,16.95
2023-05-19T11:23:42.327Z,16.73
2023-05-19T11:26:09.359Z,12.57
2023-05-19T11:28:36.652Z,15.60
2023-05-19T11:31:02.549Z,22.98
2023-05-19T11:33:27.949Z,15.23
2023-05-19T11:35:53.043Z,15.10
2023-05-19T11:38:20.815Z,14.30
2023-05-19T11:40:46.321Z,15.77
2023-05-19T11:43:11.314Z,16.48
2023-05-19T11:45:37.116Z,14.73
2023-05-19T11:48:04.549Z,16.23
2023-05-19T11:50:29.669Z,19.23
2023-05-19T11:52:54.534Z,14.00
2023-05-19T11:55:22.593Z,22.77
2023-05-19T11:58:03.964Z,17.52
2023-05-19T12:00:30.391Z,15.18
2023-05-19T12:02:55.711Z,13.85
2023-05-19T12:05:22.870Z,14.18
2023-05-19T12:07:49.820Z,13.18
2023-05-19T12:10:14.713Z,12.50
2023-05-19T12:12:41.732Z,18.70
2023-05-19T12:15:07.814Z,15.52
2023-05-19T12:17:34.894Z,16.08
2023-05-19T12:20:01.646Z,13.93
2023-05-19T12:22:29.299Z,17.27
2023-05-19T12:24:54.012Z,15.70
2023-05-19T12:27:20.863Z,15.50
2023-05-19T12:30:08.784Z,12.13
2023-05-19T12:32:36.487Z,16.60
2023-05-19T12:35:03.958Z,15.35
2023-05-19T12:37:30.372Z,13.05
2023-05-19T12:39:56.726Z,13.95
2023-05-19T12:42:21.536Z,16.00
2023-05-19T12:44:50.613Z,15.85
2023-05-19T12:47:15.831Z,20.23
2023-05-19T12:49:56.894Z,12.68
2023-05-19T12:52:23.337Z,16.50
2023-05-19T12:54:48.012Z,14.25
2023-05-19T12:57:12.940Z,18.95
2023-05-19T12:59:39.060Z,14.82
2023-05-19T13:02:05.737Z,12.95
2023-05-19T13:04:30.646Z,10.98
2023-05-19T13:06:55.901Z,15.77
2023-05-19T13:09:21.349Z,10.77
2023-05-19T13:11:51.197Z,14.90
2023-05-19T13:14:17.276Z,13.82
2023-05-19T13:16:42.750Z,13.95
2023-05-19T13:19:23.869Z,20.33
2023-05-19T13:21:51.190Z,18.60
2023-05-19T13:24:15.910Z,12.57
2023-05-19T13:26:41.829Z,11.65
2023-05-19T13:29:06.584Z,10.93
2023-05-19T13:31:31.327Z,16.15
2023-05-19T13:33:56.033Z,13.52
2023-05-19T13:36:22.491Z,13.27
2023-05-19T13:38:47.211Z,14.05
2023-05-19T13:41:13.710Z,17.52
2023-05-19T13:43:38.644Z,14.23
2023-05-19T13:46:03.599Z,13.77
2023-05-19T13:48:28.674Z,18.05
2023-05-19T13:50:55.704Z,11.40
2023-05-19T13:53:21.836Z,15.63
2023-05-19T13:55:46.972Z,11.98
2023-05-19T13:58:12.667Z,16.88
2023-05-19T14:00:37.571Z,10.25
2023-05-19T14:03:02.683Z,38.97
2023-05-19T14:05:29.123Z,21.17
2023-05-19T14:07:54.508Z,27.75
2023-05-19T14:10:20.482Z,19.25
2023-05-19T14:13:14.038Z,27.30
2023-05-19T14:15:29.724Z,24.23
2023-05-19T14:17:54.380Z,34.33
2023-05-19T14:20:19.233Z,39.00
2023-05-19T14:22:43.892Z,16.98
2023-05-19T14:25:09.655Z,12.55
2023-05-19T14:27:35.693Z,16.92
2023-05-19T14:30:00.380Z,19.90
2023-05-19T14:32:25.297Z,16.05
2023-05-19T14:34:52.972Z,13.63
2023-05-19T14:37:17.776Z,14.60
2023-05-19T14:39:42.412Z,9.45
2023-05-19T14:42:07.293Z,17.35
2023-05-19T14:44:33.889Z,16.70
2023-05-19T14:46:58.564Z,11.88
2023-05-19T14:49:23.162Z,16.65
2023-05-19T14:51:47.751Z,14.15
2023-05-19T14:54:12.320Z,11.65
2023-05-19T14:56:36.887Z,22.42
2023-05-19T14:59:01.582Z,10.98
2023-05-19T15:01:27.675Z,11.80
2023-05-19T15:03:52.499Z,11.77
2023-05-19T15:06:17.120Z,11.32
2023-05-19T15:08:41.954Z,9.95
2023-05-19T15:11:06.613Z,7.80
2023-05-19T15:13:31.233Z,14.27
2023-05-19T15:16:08.281Z,9.85
2023-05-19T15:18:42.314Z,13.57
2023-05-19T15:21:07.555Z,9.23
2023-05-19T15:23:32.331Z,11.23
2023-05-19T15:25:57.195Z,13.95
2023-05-19T15:28:21.862Z,10.10
2023-05-19T15:30:47.032Z,13.77
2023-05-19T15:33:11.967Z,10.88
2023-05-19T15:35:38.002Z,10.73
2023-05-19T15:38:06.294Z,10.95
2023-05-19T15:40:31.056Z,11.38
2023-05-19T15:42:55.756Z,16.02
2023-05-19T15:45:20.415Z,7.93
2023-05-19T15:47:45.075Z,10.63
2023-05-19T15:50:10.817Z,12.75
2023-05-19T15:52:37.037Z,9.10
2023-05-19T15:55:01.517Z,13.23
2023-05-19T15:57:28.352Z,12.38
2023-05-19T15:59:52.916Z,16.25
2023-05-19T16:02:17.761Z,14.48
2023-05-19T16:04:42.349Z,10.00
2023-05-19T16:07:07.299Z,13.38
2023-05-19T16:09:33.297Z,11.52
2023-05-19T16:11:57.862Z,12.77
2023-05-19T16:14:23.279Z,9.32
2023-05-19T16:16:48.143Z,10.57
2023-05-19T16:19:13.167Z,13.10
2023-05-19T16:21:37.848Z,7.75
2023-05-19T16:24:02.540Z,8.52
2023-05-19T16:26:29.052Z,15.95
2023-05-19T16:28:53.572Z,13.30
2023-05-19T16:31:18.272Z,10.15
2023-05-19T16:33:42.802Z,13.43
2023-05-19T16:36:08.088Z,10.23
2023-05-19T16:38:32.785Z,10.32
2023-05-19T16:40:57.561Z,14.43
2023-05-19T16:43:23.371Z,10.32
2023-05-19T16:45:47.952Z,9.38
2023-05-19T16:48:12.698Z,13.48
2023-05-19T16:50:37.869Z,13.82
2023-05-19T16:53:02.566Z,11.85
2023-05-19T16:55:27.167Z,14.68
2023-05-19T16:57:51.747Z,12.80
2023-05-19T17:00:18.308Z,10.70
2023-05-19T17:02:43.123Z,13.57
2023-05-19T17:05:08.478Z,9.43
2023-05-19T17:07:33.395Z,13.65
2023-05-19T17:09:58.093Z,13.40
2023-05-19T17:12:22.751Z,15.07
2023-05-19T17:14:47.534Z,18.48
2023-05-19T17:17:13.707Z,16.25
2023-05-19T17:19:38.367Z,13.77
2023-05-19T17:22:03.024Z,21.27
2023-05-19T17:24:28.882Z,15.85
2023-05-19T17:26:53.519Z,11.20
2023-05-19T17:29:18.117Z,13.55
2023-05-19T17:31:42.805Z,15.30
2023-05-19T17:34:09.152Z,10.98
2023-05-19T17:36:33.651Z,11.65
2023-05-19T17:38:58.539Z,10.68
2023-05-19T17:41:23.525Z,13.43
2023-05-19T17:43:48.434Z,13.40
2023-05-19T17:46:13.418Z,19.63
2023-05-19T17:48:40.085Z,13.95
2023-05-19T17:51:07.785Z,15.60
2023-05-19T17:53:32.981Z,11.13
2023-05-19T17:56:00.700Z,13.82
2023-05-19T17:58:26.065Z,12.68
2023-05-19T18:00:51.577Z,11.23
2023-05-19T18:03:17.228Z,12.40
2023-05-19T18:05:43.413Z,19.38
2023-05-19T18:08:09.695Z,9.95
2023-05-19T18:10:38.476Z,12.43
2023-05-19T18:13:03.633Z,13.03
2023-05-19T18:15:31.096Z,20.55
2023-05-19T18:17:55.784Z,11.45
2023-05-19T18:20:20.565Z,13.35
2023-05-19T18:22:45.402Z,10.57
2023-05-19T18:25:12.257Z,11.65
2023-05-19T18:27:36.842Z,13.50
2023-05-19T18:30:01.618Z,9.65
2023-05-19T18:32:29.851Z,9.90
2023-05-19T18:34:54.579Z,15.27
2023-05-19T18:37:19.309Z,14.35
2023-05-19T18:39:43.981Z,13.20
2023-05-19T18:42:10.082Z,12.20
2023-05-19T18:44:34.987Z,14.75
2023-05-19T18:46:59.642Z,13.40
2023-05-19T18:49:27.365Z,15.57
2023-05-19T18:51:52.871Z,12.20
2023-05-19T18:54:17.521Z,14.20
2023-05-19T18:56:42.507Z,13.02
2023-05-19T18:59:09.909Z,15.25
2023-05-19T19:01:34.591Z,16.63
2023-05-19T19:03:59.328Z,14.82
2023-05-19T19:06:24.284Z,14.73
2023-05-19T19:08:48.885Z,11.65
2023-05-19T19:11:13.520Z,14.27
2023-05-19T19:13:38.406Z,16.25
2023-05-19T19:16:12.299Z,13.10
2023-05-19T19:18:40.052Z,11.80
2023-05-19T19:21:07.675Z,13.70
2023-05-19T19:23:32.695Z,15.05
2023-05-19T19:25:57.318Z,13.55
2023-05-19T19:28:23.979Z,14.20
2023-05-19T19:30:48.552Z,12.07
2023-05-19T19:33:18.385Z,13.70
2023-05-19T19:38:07.559Z,15.52
2023-05-19T19:40:32.792Z,14.57
2023-05-19T19:42:57.526Z,13.23
2023-05-19T19:45:22.226Z,12.00
2023-05-19T19:47:47.037Z,11.80
2023-05-19T19:50:13.988Z,13.25
2023-05-19T19:52:38.564Z,15.45
2023-05-19T19:55:03.108Z,14.00
2023-05-19T19:57:31.778Z,13.93
2023-05-19T19:59:59.104Z,12.70
2023-05-19T20:02:24.041Z,15.95
2023-05-19T20:04:50.619Z,12.65
2023-05-19T20:07:19.304Z,13.93
2023-05-19T20:09:46.761Z,14.13
2023-05-19T20:12:11.616Z,13.55
2023-05-19T20:14:36.722Z,15.20
2023-05-19T20:17:01.232Z,15.27
2023-05-19T20:19:31.294Z,14.63
2023-05-19T20:21:57.958Z,14.77
2023-05-19T20:24:25.782Z,16.63
2023-05-19T20:26:54.004Z,19.92
2023-05-19T20:29:18.659Z,15.85
2023-05-19T20:31:43.243Z,13.75
2023-05-19T20:34:07.824Z,14.05
2023-05-19T20:36:32.896Z,16.67
2023-05-19T20:38:57.546Z,14.27
2023-05-19T20:41:24.480Z,16.38
2023-05-19T20:43:48.987Z,19.02
2023-05-19T20:46:13.891Z,16.55
2023-05-19T20:48:38.449Z,18.33
2023-05-19T20:51:02.965Z,17.20
2023-05-19T20:53:27.590Z,16.65
2023-05-19T20:55:52.218Z,16.13
2023-05-19T20:58:18.233Z,16.58
2023-05-19T21:00:42.778Z,17.88
2023-05-19T21:03:07.346Z,19.45
2023-05-19T21:05:32.113Z,20.52
2023-05-19T21:07:57.171Z,18.55
2023-05-19T21:10:21.926Z,16.65
2023-05-19T21:12:47.136Z,16.27
2023-05-19T21:15:14.095Z,14.43
2023-05-19T21:17:38.871Z,15.07
2023-05-19T21:20:03.929Z,18.27
2023-05-19T21:22:29.924Z,14.95
2023-05-19T21:24:55.082Z,17.98
2023-05-19T21:27:19.665Z,16.13
2023-05-19T21:29:44.347Z,16.20
2023-05-19T21:32:10.654Z,15.82
2023-05-19T21:34:35.241Z,13.77
2023-05-19T21:36:59.899Z,15.32
2023-05-19T21:39:24.436Z,15.80
2023-05-19T21:41:49.069Z,14.15
2023-05-19T21:44:13.695Z,15.80
2023-05-19T21:46:38.318Z,16.35
2023-05-19T21:49:05.078Z,17.13
2023-05-19T21:51:31.623Z,16.17
2023-05-19T21:53:56.227Z,14.63
2023-05-19T21:56:21.179Z,16.67
2023-05-19T21:58:45.689Z,13.60
2023-05-19T22:01:10.315Z,15.40
2023-05-19T22:03:34.972Z,14.68
2023-05-19T22:06:01.725Z,14.60
2023-05-19T22:08:26.372Z,14.93
2023-05-19T22:10:51.825Z,14.65
2023-05-19T22:13:16.570Z,13.43
2023-05-19T22:15:41.873Z,14.82
2023-05-19T22:18:07.032Z,17.58
2023-05-19T22:20:31.822Z,14.85
2023-05-19T22:22:59.497Z,17.58
2023-05-19T22:25:24.137Z,17.67
2023-05-19T22:27:48.742Z,14.15
2023-05-19T22:30:13.418Z,16.90
2023-05-19T22:32:38.051Z,17.90
2023-05-19T22:35:02.611Z,19.77
2023-05-19T22:37:29.713Z,19.63
2023-05-19T22:39:55.592Z,16.48
2023-05-19T22:42:20.157Z,16.52
2023-05-19T22:44:45.216Z,16.42
2023-05-19T22:47:13.652Z,13.95
2023-05-19T22:49:38.586Z,16.27
2023-05-19T22:52:03.275Z,15.18
2023-05-19T22:54:27.929Z,14.77
2023-05-19T22:56:54.049Z,16.42
2023-05-19T22:59:19.157Z,14.98
2023-05-19T23:01:43.927Z,15.07
2023-05-19T23:04:08.685Z,15.57
2023-05-19T23:06:33.470Z,16.75
2023-05-19T23:09:03.613Z,15.43
2023-05-19T23:11:28.756Z,15.57
2023-05-19T23:13:55.249Z,17.88
2023-05-19T23:16:20.314Z,20.60
2023-05-19T23:18:45.134Z,16.45
2023-05-19T23:21:09.845Z,17.85
2023-05-19T23:23:35.986Z,16.27
2023-05-19T23:26:01.386Z,17.05
2023-05-19T23:28:26.168Z,15.98
2023-05-19T23:30:54.757Z,17.30
2023-05-19T23:33:19.307Z,15.85
2023-05-19T23:35:43.864Z,14.95
2023-05-19T23:38:08.359Z,16.70
2023-05-19T23:40:32.890Z,13.93
2023-05-19T23:42:57.450Z,14.20
2023-05-19T23:45:25.030Z,16.42
2023-05-19T23:47:51.024Z,15.75
2023-05-19T23:50:15.775Z,14.43
2023-05-19T23:52:40.308Z,13.45
2023-05-19T23:55:05.254Z,15.57
2023-05-19T23:57:29.944Z,14.15
2023-05-19T23:59:54.612Z,17.23
